createdAt,value
2023-10-29T00:03:03.529Z,12.04
2023-10-29T00:07:07.101Z,11.89
2023-10-29T00:11:08.527Z,11.72
2023-10-29T00:15:10.484Z,11.70
2023-10-29T00:19:10.774Z,11.77
2023-10-29T00:23:14.964Z,11.67
2023-10-29T00:27:15.365Z,11.74
2023-10-29T00:31:15.749Z,11.67
2023-10-29T00:35:16.175Z,11.71
2023-10-29T00:39:19.124Z,11.80
2023-10-29T00:43:20.217Z,11.86
2023-10-29T00:47:20.849Z,11.96
2023-10-29T00:51:21.803Z,12.07
2023-10-29T00:55:25.202Z,12.05
2023-10-29T00:59:27.313Z,11.90
2023-10-29T01:03:27.913Z,11.99
2023-10-29T01:07:28.514Z,12.07
2023-10-29T01:11:31.496Z,11.93
2023-10-29T01:15:31.975Z,12.04
2023-10-29T01:19:32.413Z,11.99
2023-10-29T01:23:33.828Z,12.05
2023-10-29T01:27:37.364Z,12.20
2023-10-29T01:31:37.703Z,12.18
2023-10-29T01:35:38.265Z,12.17
2023-10-29T01:39:38.693Z,12.04
2023-10-29T01:43:41.811Z,11.92
2023-10-29T01:47:43.197Z,11.86
2023-10-29T01:51:43.642Z,11.76
2023-10-29T01:55:44.006Z,11.70
2023-10-29T01:59:47.030Z,11.61
2023-10-29T02:03:49.960Z,11.60
2023-10-29T02:07:50.493Z,11.72
2023-10-29T02:11:51.119Z,11.74
2023-10-29T02:15:54.267Z,11.76
2023-10-29T02:19:56.854Z,11.89
2023-10-29T02:24:02.663Z,11.92
2023-10-29T02:28:03.185Z,11.87
2023-10-29T02:32:04.380Z,12.02
2023-10-29T02:36:05.370Z,11.93
2023-10-29T02:40:10.466Z,12.14
2023-10-29T02:44:11.269Z,12.01
2023-10-29T02:48:11.713Z,12.04
2023-10-29T02:52:12.415Z,11.96
2023-10-29T02:56:15.502Z,12.13
2023-10-29T03:00:18.411Z,12.22
2023-10-29T03:04:18.989Z,12.24
2023-10-29T03:08:19.448Z,12.11
2023-10-29T03:12:22.642Z,12.11
2023-10-29T03:16:23.072Z,12.21
2023-10-29T03:20:23.436Z,12.00
2023-10-29T03:24:23.807Z,12.04
2023-10-29T03:28:26.896Z,11.91
2023-10-29T03:32:27.568Z,11.98
2023-10-29T03:36:27.985Z,12.19
2023-10-29T03:40:28.306Z,12.17
2023-10-29T03:44:31.495Z,12.24
2023-10-29T03:48:32.435Z,12.20
2023-10-29T03:52:32.891Z,12.15
2023-10-29T03:56:33.216Z,12.09
2023-10-29T04:00:36.542Z,11.96
2023-10-29T04:04:37.202Z,11.84
2023-10-29T04:08:37.794Z,11.83
2023-10-29T04:12:38.344Z,11.69
2023-10-29T04:16:42.001Z,11.56
2023-10-29T04:20:42.458Z,11.51
2023-10-29T04:24:42.955Z,11.29
2023-10-29T04:28:43.363Z,11.34
2023-10-29T04:32:46.326Z,11.31
2023-10-29T04:36:49.754Z,11.27
2023-10-29T04:40:50.251Z,11.09
2023-10-29T04:44:50.804Z,11.13
2023-10-29T04:48:54.197Z,11.00
2023-10-29T04:52:54.600Z,10.94
2023-10-29T04:56:54.987Z,10.79
2023-10-29T05:00:55.725Z,10.71
2023-10-29T05:04:58.647Z,10.88
2023-10-29T05:08:59.568Z,10.70
2023-10-29T05:13:01.215Z,10.65
2023-10-29T05:17:01.896Z,10.71
2023-10-29T05:21:04.951Z,10.72
2023-10-29T05:25:06.344Z,10.75
2023-10-29T05:29:07.039Z,10.69
2023-10-29T05:33:07.885Z,10.57
2023-10-29T05:37:10.997Z,10.66
2023-10-29T05:41:11.327Z,10.58
2023-10-29T05:45:13.278Z,10.57
2023-10-29T05:49:13.681Z,10.58
2023-10-29T05:53:16.807Z,10.41
2023-10-29T05:57:17.589Z,10.52
2023-10-29T06:01:18.225Z,10.62
2023-10-29T06:05:18.692Z,10.53
2023-10-29T06:09:24.508Z,10.47
2023-10-29T06:13:25.097Z,10.54
2023-10-29T06:17:27.485Z,10.47
2023-10-29T06:21:28.751Z,10.59
2023-10-29T06:25:32.361Z,10.90
2023-10-29T06:29:33.033Z,10.96
2023-10-29T06:33:41.422Z,10.73
2023-10-29T06:37:43.337Z,10.97
2023-10-29T06:41:49.338Z,11.22
2023-10-29T06:45:49.729Z,11.44
2023-10-29T06:49:52.148Z,11.37
2023-10-29T06:53:55.089Z,11.66
2023-10-29T06:57:58.072Z,11.96
2023-10-29T07:02:00.220Z,12.05
2023-10-29T07:06:09.905Z,11.96
2023-10-29T07:10:12.282Z,12.18
2023-10-29T07:14:16.937Z,12.11
2023-10-29T07:18:17.449Z,11.99
2023-10-29T07:22:18.208Z,12.14
2023-10-29T07:26:18.628Z,12.16
2023-10-29T07:30:21.757Z,12.15
2023-10-29T07:34:22.171Z,11.99
2023-10-29T07:38:22.758Z,12.24
2023-10-29T07:42:23.343Z,12.26
2023-10-29T07:46:26.781Z,12.41
2023-10-29T07:50:27.610Z,12.87
2023-10-29T07:54:28.911Z,13.26
2023-10-29T07:58:29.816Z,13.87
2023-10-29T08:02:34.330Z,14.55
2023-10-29T08:06:34.981Z,14.70
2023-10-29T08:10:36.611Z,14.93
2023-10-29T08:14:37.110Z,15.62
2023-10-29T08:18:40.359Z,15.94
2023-10-29T08:22:42.203Z,15.79
2023-10-29T08:26:43.819Z,16.53
2023-10-29T08:30:44.219Z,16.14
2023-10-29T08:34:47.454Z,15.68
2023-10-29T08:38:48.103Z,15.22
2023-10-29T08:42:48.617Z,15.21
2023-10-29T08:46:49.777Z,15.38
2023-10-29T08:50:53.609Z,15.44
2023-10-29T08:54:54.726Z,15.74
2023-10-29T08:58:55.217Z,15.83
2023-10-29T09:02:56.773Z,15.95
2023-10-29T09:07:01.746Z,15.97
2023-10-29T09:11:03.197Z,16.60
2023-10-29T09:15:03.689Z,16.92
2023-10-29T09:19:04.270Z,17.81
2023-10-29T09:23:07.378Z,18.35
2023-10-29T09:27:08.111Z,18.12
2023-10-29T09:31:09.915Z,18.52
2023-10-29T09:35:11.527Z,18.47
2023-10-29T09:39:15.232Z,18.20
2023-10-29T09:43:19.876Z,19.13
2023-10-29T09:47:22.948Z,19.29
2023-10-29T09:51:24.404Z,20.00
2023-10-29T09:55:27.494Z,20.27
2023-10-29T09:59:27.902Z,20.97
2023-10-29T10:03:31.228Z,20.84
2023-10-29T10:07:33.055Z,21.73
2023-10-29T10:11:36.086Z,21.03
2023-10-29T10:15:37.408Z,20.56
2023-10-29T10:19:37.929Z,21.17
2023-10-29T10:23:50.970Z,20.96
2023-10-29T10:27:58.719Z,20.90
2023-10-29T10:32:05.832Z,20.77
2023-10-29T10:36:07.629Z,20.45
2023-10-29T10:40:27.876Z,21.19
2023-10-29T10:44:32.757Z,21.90
2023-10-29T10:48:36.778Z,22.40
2023-10-29T10:52:38.249Z,22.37
2023-10-29T10:56:41.068Z,22.62
2023-10-29T11:00:44.675Z,22.73
2023-10-29T11:04:48.769Z,23.59
2023-10-29T11:08:50.474Z,23.94
2023-10-29T11:12:51.571Z,23.82
2023-10-29T11:16:57.257Z,22.83
2023-10-29T11:21:05.316Z,22.11
2023-10-29T11:25:43.039Z,21.92
2023-10-29T11:29:48.080Z,21.88
2023-10-29T11:34:13.025Z,21.94
2023-10-29T11:38:35.752Z,22.83
2023-10-29T11:42:36.428Z,22.64
2023-10-29T11:47:11.447Z,22.54
2023-10-29T11:51:27.757Z,22.59
2023-10-29T11:55:31.883Z,21.98
2023-10-29T11:59:32.517Z,21.84
2023-10-29T12:03:33.880Z,22.10
2023-10-29T12:07:37.083Z,22.23
2023-10-29T12:11:37.379Z,23.09
2023-10-29T12:15:37.886Z,23.68
2023-10-29T12:19:39.479Z,23.35
2023-10-29T12:23:43.035Z,23.54
2023-10-29T12:27:45.464Z,23.39
2023-10-29T12:31:51.441Z,22.69
2023-10-29T12:35:53.970Z,22.29
2023-10-29T12:39:58.269Z,21.76
2023-10-29T12:43:59.113Z,21.57
2023-10-29T12:48:13.529Z,21.23
2023-10-29T12:52:17.053Z,21.16
2023-10-29T12:56:20.697Z,20.86
2023-10-29T13:00:22.114Z,20.79
2023-10-29T13:04:23.793Z,20.53
2023-10-29T13:08:25.302Z,20.45
2023-10-29T13:12:29.307Z,20.56
2023-10-29T13:16:29.775Z,20.17
2023-10-29T13:20:32.129Z,19.94
2023-10-29T13:24:33.867Z,20.04
2023-10-29T13:28:37.352Z,19.79
2023-10-29T13:32:38.218Z,19.24
2023-10-29T13:36:38.740Z,19.47
2023-10-29T13:40:42.468Z,19.47
2023-10-29T13:44:45.610Z,19.15
2023-10-29T13:48:47.342Z,19.21
2023-10-29T13:52:47.776Z,19.13
2023-10-29T13:56:48.152Z,19.20
2023-10-29T14:00:51.363Z,18.90
2023-10-29T14:04:51.826Z,18.95
2023-10-29T14:08:52.876Z,18.67
2023-10-29T14:12:53.412Z,18.59
2023-10-29T14:16:56.401Z,18.48
2023-10-29T14:20:57.170Z,18.09
2023-10-29T14:24:57.686Z,17.94
2023-10-29T14:28:59.103Z,18.17
2023-10-29T14:33:02.221Z,17.99
2023-10-29T14:37:03.063Z,17.88
2023-10-29T14:41:03.942Z,17.81
2023-10-29T14:45:04.769Z,17.69
2023-10-29T14:49:08.156Z,17.51
2023-10-29T14:53:09.614Z,17.70
2023-10-29T14:57:26.068Z,17.66
2023-10-29T15:01:29.750Z,17.63
2023-10-29T15:05:35.569Z,17.59
2023-10-29T15:09:36.280Z,17.57
2023-10-29T15:13:45.781Z,17.40
2023-10-29T15:17:47.527Z,17.51
2023-10-29T15:21:50.676Z,17.49
2023-10-29T15:25:51.241Z,17.33
2023-10-29T15:29:55.085Z,17.36
2023-10-29T15:33:56.078Z,17.13
2023-10-29T15:37:59.171Z,17.12
2023-10-29T15:42:00.617Z,16.91
2023-10-29T15:46:01.340Z,16.86
2023-10-29T15:50:04.529Z,16.68
2023-10-29T15:54:08.328Z,16.62
2023-10-29T15:58:08.762Z,16.47
2023-10-29T16:02:09.788Z,16.40
2023-10-29T16:06:11.343Z,16.32
2023-10-29T16:10:14.952Z,16.18
2023-10-29T16:14:15.522Z,16.14
2023-10-29T16:18:16.034Z,15.71
2023-10-29T16:22:17.773Z,15.88
2023-10-29T16:26:20.925Z,15.76
2023-10-29T16:30:26.802Z,15.73
2023-10-29T16:34:28.136Z,15.66
2023-10-29T16:38:30.442Z,15.65
2023-10-29T16:42:33.449Z,15.49
2023-10-29T16:46:33.833Z,15.68
2023-10-29T16:50:34.118Z,15.78
2023-10-29T16:54:34.884Z,15.64
2023-10-29T16:58:40.377Z,15.86
2023-10-29T17:02:40.951Z,15.87
2023-10-29T17:06:41.916Z,15.87
2023-10-29T17:10:42.796Z,15.81
2023-10-29T17:14:47.182Z,15.86
2023-10-29T17:18:47.852Z,15.71
2023-10-29T17:22:48.277Z,15.95
2023-10-29T17:26:49.434Z,15.58
2023-10-29T17:30:52.809Z,15.47
2023-10-29T17:34:54.309Z,15.74
2023-10-29T17:38:54.782Z,15.66
2023-10-29T17:42:56.432Z,15.79
2023-10-29T17:47:00.530Z,15.74
2023-10-29T17:51:01.447Z,15.50
2023-10-29T17:55:02.702Z,15.73
2023-10-29T17:59:05.015Z,15.77
2023-10-29T18:03:08.172Z,15.78
2023-10-29T18:07:08.649Z,15.84
2023-10-29T18:11:09.317Z,15.56
2023-10-29T18:15:11.110Z,15.69
2023-10-29T18:19:14.290Z,15.47
2023-10-29T18:23:14.631Z,15.70
2023-10-29T18:27:15.249Z,15.71
2023-10-29T18:31:16.474Z,15.63
2023-10-29T18:35:19.649Z,15.49
2023-10-29T18:39:20.333Z,15.55
2023-10-29T18:43:22.160Z,15.43
2023-10-29T18:47:25.045Z,15.51
2023-10-29T18:51:28.137Z,15.62
2023-10-29T18:55:28.715Z,15.30
2023-10-29T18:59:29.340Z,15.45
2023-10-29T19:03:29.870Z,15.65
2023-10-29T19:07:34.554Z,15.68
2023-10-29T19:11:36.779Z,15.78
2023-10-29T19:15:38.337Z,15.70
2023-10-29T19:19:39.474Z,15.48
2023-10-29T19:23:43.675Z,15.42
2023-10-29T19:27:44.901Z,15.25
2023-10-29T19:31:45.615Z,15.33
2023-10-29T19:35:46.284Z,15.31
2023-10-29T19:39:49.491Z,15.30
2023-10-29T19:43:49.927Z,15.19
2023-10-29T19:47:51.289Z,15.18
2023-10-29T19:51:52.268Z,15.04
2023-10-29T19:55:55.406Z,15.06
2023-10-29T19:59:55.872Z,14.92
2023-10-29T20:03:59.182Z,15.05
2023-10-29T20:08:00.244Z,14.84
2023-10-29T20:12:03.907Z,14.92
2023-10-29T20:16:05.348Z,14.78
2023-10-29T20:20:06.195Z,14.78
2023-10-29T20:24:09.786Z,14.78
2023-10-29T20:28:13.954Z,14.60
2023-10-29T20:32:15.342Z,14.69
2023-10-29T20:36:19.139Z,14.65
2023-10-29T20:40:21.069Z,14.84
2023-10-29T20:44:24.292Z,14.89
2023-10-29T20:48:25.519Z,14.89
2023-10-29T20:52:26.651Z,14.99
2023-10-29T20:56:28.936Z,14.73
2023-10-29T21:00:33.491Z,14.84
2023-10-29T21:04:34.827Z,14.92
2023-10-29T21:08:36.119Z,14.59
2023-10-29T21:12:38.233Z,14.76
2023-10-29T21:16:42.048Z,14.57
2023-10-29T21:20:43.359Z,14.68
2023-10-29T21:24:44.761Z,14.57
2023-10-29T21:28:45.801Z,14.68
2023-10-29T21:32:49.687Z,14.54
2023-10-29T21:36:50.821Z,14.56
2023-10-29T21:40:51.986Z,14.25
2023-10-29T21:44:53.762Z,14.39
2023-10-29T21:48:57.738Z,14.07
2023-10-29T21:52:59.000Z,13.93
2023-10-29T21:57:00.353Z,13.85
2023-10-29T22:01:02.244Z,14.15
2023-10-29T22:05:06.189Z,14.12
2023-10-29T22:09:10.132Z,14.13
2023-10-29T22:13:12.135Z,14.14
2023-10-29T22:17:15.246Z,14.10
2023-10-29T22:21:18.473Z,14.11
2023-10-29T22:25:19.283Z,14.11
2023-10-29T22:29:19.734Z,14.21
2023-10-29T22:33:23.793Z,14.15
2023-10-29T22:37:26.940Z,14.18
2023-10-29T22:41:27.411Z,14.03
2023-10-29T22:45:31.272Z,14.07
2023-10-29T22:49:32.065Z,14.08
2023-10-29T22:53:35.824Z,14.13
2023-10-29T22:57:36.379Z,14.08
2023-10-29T23:01:36.795Z,14.01
2023-10-29T23:05:38.059Z,14.08
2023-10-29T23:09:41.286Z,14.08
2023-10-29T23:13:42.413Z,13.90
2023-10-29T23:17:42.863Z,14.08
2023-10-29T23:21:43.169Z,14.05
2023-10-29T23:25:47.428Z,14.01
2023-10-29T23:29:48.031Z,13.96
2023-10-29T23:33:49.831Z,13.87
2023-10-29T23:37:50.727Z,13.93
2023-10-29T23:41:53.667Z,13.85
2023-10-29T23:45:54.277Z,13.89
2023-10-29T23:49:55.303Z,14.00
2023-10-29T23:53:55.713Z,14.00
2023-10-29T23:57:58.697Z,14.12
